KLUG

Details ICAO KLUG
Name ELLINGTON
Region United States
Timezone America/Chicago (UTC-5.0)
Plans Departing 10
Arriving 1
Stats Elevation 717 ft / 219 m (AMSL)
Location 35.506898° -86.803886°
Runways 1
Magnetic Variation 3.709° W
Sunrise 2018-05-22 10:39:11 UTC / 2018-05-22 05:39:11 Local
Sunset 2018-05-23 00:51:29 UTC / 2018-05-22 19:51:29 Local
Advertisement - Login to hide

Runways

ID Width Length Bearing (true) Bearing (mag) Surface Threshold Offset Overrun Length
02 75 ft / 23 m 5,065 ft / 1,544 m 17.88° 21.59° Asphalt 0 ft / 0 m 0 ft / 0 m
20 75 ft / 23 m 5,065 ft / 1,544 m 197.88° 201.59° Asphalt 0 ft / 0 m 0 ft / 0 m

Map

Weather


0- 5 10 15 20 25 30 35+ Temperature / ° C

Clouds and Precipitation
Forecast for 2018-05-23 00:00 UTC. Updated 44 minutes ago

Ground ~20,000 ft ~40,000 ft Winds

METAR

KLUG 222355Z AUTO 33004KT 10SM FEW065 27/21 A3001 RMK A01

TAF

Not found

Frequencies

Recorded 135.77 MHz AWOS 3
Unicom 122.80 MHz CTAF/UNICOM
Warning: Do not use this data for real-world aviation or navigation. No guarantee of current accuracy is given.